createdAt,value
2023-04-20T00:00:12.831Z,-24037.02
2023-04-20T00:02:42.281Z,-24036.98
2023-04-20T00:08:18.244Z,-24036.89
2023-04-20T00:10:46.541Z,-24036.39
2023-04-20T00:13:14.895Z,-24036.46
2023-04-20T00:15:43.012Z,-24036.55
2023-04-20T00:18:11.460Z,-24036.11
2023-04-20T00:20:39.712Z,-24036.11
2023-04-20T00:23:07.872Z,-24036.02
2023-04-20T00:25:36.566Z,-24035.83
2023-04-20T00:28:05.227Z,-24035.95
2023-04-20T00:30:35.029Z,-24035.83
2023-04-20T00:33:03.404Z,-24035.21
2023-04-20T00:35:32.519Z,-24035.36
2023-04-20T00:38:00.902Z,-24035.86
2023-04-20T00:40:29.274Z,-24035.99
2023-04-20T00:42:57.919Z,-24036.02
2023-04-20T00:45:26.355Z,-24035.83
2023-04-20T00:47:54.550Z,-24035.73
2023-04-20T00:50:22.818Z,-24035.83
2023-04-20T00:52:51.092Z,-24035.71
2023-04-20T00:55:19.849Z,-24035.67
2023-04-20T00:57:48.869Z,-24035.58
2023-04-20T01:00:17.151Z,-24035.49
2023-04-20T01:02:46.064Z,-24035.21
2023-04-20T01:05:14.407Z,-24034.71
2023-04-20T01:07:42.604Z,-24034.36
2023-04-20T01:10:10.905Z,-24034.08
2023-04-20T01:12:41.239Z,-24033.74
2023-04-20T01:15:09.721Z,-24033.09
2023-04-20T01:17:41.199Z,-24032.52
2023-04-20T01:20:12.709Z,-24031.99
2023-04-20T01:22:47.681Z,-24031.59
2023-04-20T01:25:16.378Z,-24031.09
2023-04-20T01:27:44.589Z,-24030.71
2023-04-20T01:30:12.963Z,-24030.65
2023-04-20T01:32:41.498Z,-24030.18
2023-04-20T01:35:10.577Z,-24030.03
2023-04-20T01:37:39.973Z,-24029.93
2023-04-20T01:40:11.962Z,-24029.84
2023-04-20T01:42:40.554Z,-24029.56
2023-04-20T01:45:09.005Z,-24029.09
2023-04-20T01:47:37.559Z,-24028.78
2023-04-20T01:50:08.208Z,-24028.81
2023-04-20T01:52:36.483Z,-24028.84
2023-04-20T01:55:05.036Z,-24028.78
2023-04-20T01:57:33.393Z,-24028.53
2023-04-20T02:00:01.623Z,-24028.28
2023-04-20T02:02:30.470Z,-24027.90
2023-04-20T02:04:58.639Z,-24027.68
2023-04-20T02:07:26.942Z,-24027.56
2023-04-20T02:09:55.296Z,-24027.59
2023-04-20T02:12:23.541Z,-24027.87
2023-04-20T02:14:52.092Z,-24027.65
2023-04-20T02:17:22.877Z,-24027.31
2023-04-20T02:19:51.012Z,-24027.00
2023-04-20T02:22:19.104Z,-24026.90
2023-04-20T02:24:47.192Z,-24026.81
2023-04-20T02:27:15.815Z,-24026.56
2023-04-20T02:29:44.204Z,-24026.31
2023-04-20T02:32:15.306Z,-24026.28
2023-04-20T02:34:43.432Z,-24026.40
2023-04-20T02:37:11.556Z,-24026.12
2023-04-20T02:39:39.792Z,-24025.96
2023-04-20T02:42:08.031Z,-24025.90
2023-04-20T02:44:36.700Z,-24025.53
2023-04-20T02:47:04.972Z,-24025.31
2023-04-20T02:49:33.794Z,-24024.97
2023-04-20T02:52:02.029Z,-24024.72
2023-04-20T02:54:30.632Z,-24024.63
2023-04-20T02:56:58.986Z,-24024.34
2023-04-20T02:59:27.936Z,-24024.28
2023-04-20T03:02:02.032Z,-24023.87
2023-04-20T03:04:31.300Z,-24023.66
2023-04-20T03:07:16.696Z,-24023.63
2023-04-20T03:09:45.032Z,-24023.72
2023-04-20T03:12:26.316Z,-24023.69
2023-04-20T03:15:23.586Z,-24023.75
2023-04-20T03:17:59.172Z,-24023.93
2023-04-20T03:20:27.709Z,-24023.78
2023-04-20T03:22:56.126Z,-24023.88
2023-04-20T03:25:25.877Z,-24023.96
2023-04-20T03:28:00.972Z,-24024.03
2023-04-20T03:30:29.978Z,-24024.15
2023-04-20T03:33:17.110Z,-24024.40
2023-04-20T03:35:45.402Z,-24024.69
2023-04-20T03:38:13.663Z,-24025.28
2023-04-20T03:40:41.774Z,-24025.71
2023-04-20T03:43:12.277Z,-24026.31
2023-04-20T03:45:40.528Z,-24027.12
2023-04-20T03:48:09.069Z,-24027.87
2023-04-20T03:50:38.206Z,-24028.59
2023-04-20T03:53:06.417Z,-24029.18
2023-04-20T03:55:34.711Z,-24029.93
2023-04-20T03:58:07.200Z,-24030.87
2023-04-20T04:00:44.544Z,-24031.71
2023-04-20T04:03:13.360Z,-24032.30
2023-04-20T04:05:41.994Z,-24032.39
2023-04-20T04:08:10.300Z,-24032.64
2023-04-20T04:10:38.864Z,-24032.65
2023-04-20T04:13:07.063Z,-24032.43
2023-04-20T04:15:35.332Z,-24032.14
2023-04-20T04:18:06.711Z,-24032.05
2023-04-20T04:20:36.548Z,-24031.34
2023-04-20T04:23:05.466Z,-24030.52
2023-04-20T04:25:54.267Z,-24029.34
2023-04-20T04:28:24.893Z,-24027.90
2023-04-20T04:31:28.794Z,-24026.21
2023-04-20T04:34:02.356Z,-24024.59
2023-04-20T04:36:36.912Z,-24023.09
2023-04-20T04:39:06.224Z,-24021.62
2023-04-20T04:41:34.483Z,-24020.19
2023-04-20T04:44:16.859Z,-24019.22
2023-04-20T04:46:45.849Z,-24018.53
2023-04-20T04:49:14.354Z,-24017.84
2023-04-20T04:51:42.539Z,-24017.34
2023-04-20T04:54:10.861Z,-24016.28
2023-04-20T04:56:38.988Z,-24015.09
2023-04-20T04:59:07.228Z,-24013.72
2023-04-20T05:01:35.411Z,-24012.41
2023-04-20T05:04:03.825Z,-24011.06
2023-04-20T05:06:32.846Z,-24009.32
2023-04-20T05:09:01.029Z,-24008.00
2023-04-20T05:11:29.497Z,-24006.69
2023-04-20T05:13:57.802Z,-24006.47
2023-04-20T05:16:26.005Z,-24006.72
2023-04-20T05:18:54.247Z,-24005.75
2023-04-20T05:21:22.986Z,-24004.54
2023-04-20T05:23:51.080Z,-24003.79
2023-04-20T05:26:19.173Z,-24002.91
2023-04-20T05:28:47.606Z,-24002.22
2023-04-20T05:31:16.028Z,-24001.19
2023-04-20T05:33:44.114Z,-24000.22
2023-04-20T05:36:12.252Z,-23999.25
2023-04-20T05:38:40.536Z,-23998.28
2023-04-20T05:41:08.673Z,-23997.00
2023-04-20T05:43:36.963Z,-23995.66
2023-04-20T05:46:05.612Z,-23994.87
2023-04-20T05:48:34.133Z,-23994.34
2023-04-20T05:51:02.473Z,-23993.18
2023-04-20T05:53:31.384Z,-23992.21
2023-04-20T05:55:59.658Z,-23991.49
2023-04-20T05:58:27.955Z,-23991.05
2023-04-20T06:00:57.029Z,-23990.84
2023-04-20T06:03:26.029Z,-23990.77
2023-04-20T06:05:54.466Z,-23990.90
2023-04-20T06:08:22.550Z,-23991.15
2023-04-20T06:10:55.795Z,-23991.58
2023-04-20T06:13:24.409Z,-23991.96
2023-04-20T06:15:55.422Z,-23992.21
2023-04-20T06:18:24.233Z,-23992.43
2023-04-20T06:20:52.406Z,-23992.02
2023-04-20T06:23:21.413Z,-23991.77
2023-04-20T06:25:49.588Z,-23992.74
2023-04-20T06:28:17.769Z,-23993.49
2023-04-20T06:30:46.042Z,-23994.68
2023-04-20T06:33:17.335Z,-23996.13
2023-04-20T06:35:45.780Z,-23997.69
2023-04-20T06:38:14.012Z,-23999.69
2023-04-20T06:40:42.276Z,-24002.04
2023-04-20T06:43:10.690Z,-24005.06
2023-04-20T06:45:40.320Z,-24007.50
2023-04-20T06:48:20.233Z,-24009.91
2023-04-20T06:50:56.715Z,-24011.63
2023-04-20T06:53:24.936Z,-24012.66
2023-04-20T06:55:56.188Z,-24014.47
2023-04-20T06:58:24.454Z,-24016.19
2023-04-20T07:00:52.874Z,-24018.06
2023-04-20T07:03:21.345Z,-24019.72
2023-04-20T07:05:49.848Z,-24021.53
2023-04-20T07:08:18.098Z,-24022.90
2023-04-20T07:10:46.406Z,-24023.53
2023-04-20T07:13:14.737Z,-24023.97
2023-04-20T07:15:45.281Z,-24024.78
2023-04-20T07:18:13.434Z,-24025.75
2023-04-20T07:20:41.807Z,-24027.06
2023-04-20T07:23:09.994Z,-24027.93
2023-04-20T07:25:38.348Z,-24028.40
2023-04-20T07:28:06.602Z,-24029.12
2023-04-20T07:30:34.717Z,-24029.46
2023-04-20T07:33:03.160Z,-24029.96
2023-04-20T07:35:31.364Z,-24029.90
2023-04-20T07:37:59.596Z,-24029.53
2023-04-20T07:40:27.834Z,-24029.21
2023-04-20T07:42:56.018Z,-24028.71
2023-04-20T07:45:24.428Z,-24028.56
2023-04-20T07:47:54.304Z,-24028.50
2023-04-20T07:50:22.490Z,-24028.53
2023-04-20T07:52:50.831Z,-24029.06
2023-04-20T07:55:19.079Z,-24029.65
2023-04-20T07:57:47.380Z,-24030.21
2023-04-20T08:00:16.146Z,-24030.09
2023-04-20T08:02:46.981Z,-24030.59
2023-04-20T08:05:15.538Z,-24031.15
2023-04-20T08:07:44.222Z,-24030.93
2023-04-20T08:10:12.953Z,-24030.28
2023-04-20T08:12:42.216Z,-24029.09
2023-04-20T08:15:11.072Z,-24027.06
2023-04-20T08:17:39.566Z,-24025.15
2023-04-20T08:20:08.349Z,-24023.09
2023-04-20T08:22:37.934Z,-24021.03
2023-04-20T08:25:06.194Z,-24018.38
2023-04-20T08:27:35.176Z,-24015.78
2023-04-20T08:30:04.548Z,-24013.22
2023-04-20T08:32:33.446Z,-24010.13
2023-04-20T08:35:01.650Z,-24006.29
2023-04-20T08:37:32.522Z,-24002.22
2023-04-20T08:40:01.202Z,-23997.88
2023-04-20T08:42:29.829Z,-23994.40
2023-04-20T08:44:58.736Z,-23992.15
2023-04-20T08:47:28.126Z,-23990.37
2023-04-20T08:49:56.497Z,-23988.39
2023-04-20T08:52:24.845Z,-23986.58
2023-04-20T08:54:57.267Z,-23984.89
2023-04-20T08:57:26.382Z,-23983.73
2023-04-20T08:59:54.759Z,-23982.55
2023-04-20T09:02:23.943Z,-23981.45
2023-04-20T09:05:02.848Z,-23980.30
2023-04-20T09:07:32.151Z,-23979.42
2023-04-20T09:10:00.820Z,-23979.02
2023-04-20T09:12:29.328Z,-23978.51
2023-04-20T09:14:57.640Z,-23978.67
2023-04-20T09:17:36.310Z,-23979.11
2023-04-20T09:20:08.688Z,-23979.61
2023-04-20T09:22:37.585Z,-23980.23
2023-04-20T09:25:15.344Z,-23980.77
2023-04-20T09:27:43.755Z,-23980.92
2023-04-20T09:30:12.372Z,-23981.48
2023-04-20T09:32:40.791Z,-23982.58
2023-04-20T09:35:09.447Z,-23983.96
2023-04-20T09:37:47.513Z,-23985.46
2023-04-20T09:40:16.711Z,-23986.58
2023-04-20T09:42:44.980Z,-23987.37
2023-04-20T09:45:14.807Z,-23988.55
2023-04-20T09:47:44.501Z,-23990.18
2023-04-20T09:50:24.794Z,-23991.87
2023-04-20T09:52:57.732Z,-23993.78
2023-04-20T09:55:26.781Z,-23995.78
2023-04-20T09:57:54.927Z,-23998.31
2023-04-20T10:00:23.477Z,-24000.57
2023-04-20T10:02:52.166Z,-24003.19
2023-04-20T10:05:20.753Z,-24005.75
2023-04-20T10:07:59.553Z,-24008.47
2023-04-20T10:10:27.769Z,-24011.29
2023-04-20T10:12:58.686Z,-24013.69
2023-04-20T10:15:39.911Z,-24015.41
2023-04-20T10:18:25.069Z,-24016.31
2023-04-20T10:21:05.460Z,-24016.54
2023-04-20T10:23:34.182Z,-24016.22
2023-04-20T10:26:03.937Z,-24015.66
2023-04-20T10:28:40.780Z,-24015.22
2023-04-20T10:31:13.065Z,-24015.19
2023-04-20T10:33:55.062Z,-24015.41
2023-04-20T10:36:37.256Z,-24016.13
2023-04-20T10:39:19.848Z,-24016.60
2023-04-20T10:41:55.792Z,-24017.10
2023-04-20T10:44:26.615Z,-24017.56
2023-04-20T10:46:55.297Z,-24017.94
2023-04-20T10:49:30.297Z,-24018.50
2023-04-20T10:51:59.157Z,-24019.06
2023-04-20T10:54:29.008Z,-24019.53
2023-04-20T10:56:57.304Z,-24020.16
2023-04-20T10:59:25.611Z,-24020.09
2023-04-20T11:01:55.596Z,-24019.06
2023-04-20T11:04:33.596Z,-24017.44
2023-04-20T11:07:09.104Z,-24015.81
2023-04-20T11:09:38.742Z,-24014.16
2023-04-20T11:12:12.252Z,-24012.84
2023-04-20T11:15:07.314Z,-24011.44
2023-04-20T11:17:36.723Z,-24010.38
2023-04-20T11:20:09.231Z,-24009.91
2023-04-20T11:22:41.374Z,-24010.22
2023-04-20T11:25:10.933Z,-24010.72
2023-04-20T11:27:39.989Z,-24010.75
2023-04-20T11:30:10.125Z,-24010.38
2023-04-20T11:32:39.351Z,-24010.60
2023-04-20T11:35:09.579Z,-24010.82
2023-04-20T11:37:51.579Z,-24011.10
2023-04-20T11:40:19.967Z,-24011.63
2023-04-20T11:42:48.147Z,-24011.97
2023-04-20T11:45:16.606Z,-24012.72
2023-04-20T11:47:45.953Z,-24013.16
2023-04-20T11:50:14.610Z,-24013.82
2023-04-20T11:52:43.036Z,-24014.13
2023-04-20T11:55:11.655Z,-24014.56
2023-04-20T11:57:39.771Z,-24015.22
2023-04-20T12:00:08.946Z,-24015.84
2023-04-20T12:02:43.317Z,-24016.91
2023-04-20T12:05:12.146Z,-24017.84
2023-04-20T12:07:40.557Z,-24018.35
2023-04-20T12:10:09.127Z,-24019.16
2023-04-20T12:12:38.960Z,-24019.84
2023-04-20T12:15:07.905Z,-24020.04
2023-04-20T12:17:36.246Z,-24020.59
2023-04-20T12:20:09.027Z,-24020.78
2023-04-20T12:22:37.575Z,-24021.15
2023-04-20T12:25:06.750Z,-24021.94
2023-04-20T12:27:36.103Z,-24022.97
2023-04-20T12:30:04.521Z,-24023.72
2023-04-20T12:32:33.595Z,-24024.18
2023-04-20T12:35:01.899Z,-24024.65
2023-04-20T12:37:31.015Z,-24025.28
2023-04-20T12:39:59.333Z,-24025.78
2023-04-20T12:42:27.662Z,-24026.63
2023-04-20T12:44:56.391Z,-24028.18
2023-04-20T12:47:24.535Z,-24029.90
2023-04-20T12:49:52.788Z,-24031.21
2023-04-20T12:52:21.268Z,-24032.33
2023-04-20T12:54:50.048Z,-24033.30
2023-04-20T12:57:18.296Z,-24034.08
2023-04-20T12:59:48.828Z,-24034.71
2023-04-20T13:02:17.847Z,-24034.96
2023-04-20T13:04:46.960Z,-24035.05
2023-04-20T13:07:15.597Z,-24035.39
2023-04-20T13:09:44.017Z,-24035.92
2023-04-20T13:12:13.093Z,-24036.61
2023-04-20T13:14:41.145Z,-24037.70
2023-04-20T13:17:09.344Z,-24038.39
2023-04-20T13:19:37.548Z,-24038.48
2023-04-20T13:22:05.665Z,-24037.74
2023-04-20T13:24:34.046Z,-24035.89
2023-04-20T13:27:02.276Z,-24033.55
2023-04-20T13:29:30.711Z,-24031.21
2023-04-20T13:31:58.891Z,-24029.24
2023-04-20T13:34:27.070Z,-24028.06
2023-04-20T13:36:55.376Z,-24028.06
2023-04-20T13:39:24.263Z,-24030.24
2023-04-20T13:41:52.675Z,-24032.28
2023-04-20T13:44:21.416Z,-24034.46
2023-04-20T13:46:50.043Z,-24036.46
2023-04-20T13:49:18.326Z,-24037.89
2023-04-20T13:51:46.492Z,-24039.92
2023-04-20T13:54:14.714Z,-24042.26
2023-04-20T13:56:42.856Z,-24044.07
2023-04-20T13:59:11.242Z,-24045.23
2023-04-20T14:01:39.465Z,-24045.63
2023-04-20T14:04:09.374Z,-24046.25
2023-04-20T14:06:38.270Z,-24046.72
2023-04-20T14:09:06.456Z,-24046.79
2023-04-20T14:11:34.660Z,-24046.57
2023-04-20T14:14:02.941Z,-24046.57
2023-04-20T14:16:31.468Z,-24046.88
2023-04-20T14:18:59.579Z,-24047.54
2023-04-20T14:21:28.023Z,-24048.35
2023-04-20T14:23:56.350Z,-24049.44
2023-04-20T14:26:24.649Z,-24051.31
2023-04-20T14:28:53.310Z,-24053.38
2023-04-20T14:31:21.494Z,-24055.72
2023-04-20T14:33:49.592Z,-24058.52
2023-04-20T14:36:17.943Z,-24060.83
2023-04-20T14:38:46.351Z,-24062.76
2023-04-20T14:41:16.240Z,-24064.54
2023-04-20T14:43:44.515Z,-24065.85
2023-04-20T14:46:13.125Z,-24066.94
2023-04-20T14:48:41.760Z,-24068.13
2023-04-20T14:51:09.907Z,-24068.56
2023-04-20T14:53:37.991Z,-24069.25
2023-04-20T14:56:06.317Z,-24069.87
2023-04-20T14:58:36.134Z,-24070.50
2023-04-20T15:01:04.845Z,-24071.21
2023-04-20T15:03:33.773Z,-24071.93
2023-04-20T15:06:02.293Z,-24072.46
2023-04-20T15:08:30.858Z,-24072.96
2023-04-20T15:10:59.028Z,-24073.61
2023-04-20T15:13:27.497Z,-24074.18
2023-04-20T15:15:56.019Z,-24074.43
2023-04-20T15:18:24.277Z,-24074.58
2023-04-20T15:20:52.759Z,-24074.80
2023-04-20T15:23:21.415Z,-24075.14
2023-04-20T15:25:49.704Z,-24075.52
2023-04-20T15:28:18.518Z,-24075.98
2023-04-20T15:30:47.168Z,-24076.17
2023-04-20T15:33:15.436Z,-24076.57
2023-04-20T15:35:43.760Z,-24076.80
2023-04-20T15:38:11.994Z,-24077.39
2023-04-20T15:40:40.260Z,-24077.82
2023-04-20T15:43:08.557Z,-24077.88
2023-04-20T15:45:36.784Z,-24077.82
2023-04-20T15:48:05.383Z,-24077.70
2023-04-20T15:50:33.817Z,-24078.16
2023-04-20T15:53:02.284Z,-24078.44
2023-04-20T15:55:34.594Z,-24078.41
2023-04-20T15:58:02.899Z,-24078.32
2023-04-20T16:00:31.560Z,-24078.38
2023-04-20T16:03:01.722Z,-24078.70
2023-04-20T16:05:30.173Z,-24078.60
2023-04-20T16:07:58.659Z,-24079.25
2023-04-20T16:10:27.604Z,-24079.85
2023-04-20T16:12:56.382Z,-24080.22
2023-04-20T16:15:24.855Z,-24080.16
2023-04-20T16:17:53.760Z,-24079.81
2023-04-20T16:20:22.264Z,-24079.72
2023-04-20T16:22:50.730Z,-24079.50
2023-04-20T16:25:23.185Z,-24079.01
2023-04-20T16:27:51.836Z,-24078.54
2023-04-20T16:30:20.089Z,-24078.25
2023-04-20T16:32:48.379Z,-24078.23
2023-04-20T16:35:16.609Z,-24078.57
2023-04-20T16:37:45.465Z,-24078.94
2023-04-20T16:40:13.670Z,-24079.22
2023-04-20T16:42:42.007Z,-24079.57
2023-04-20T16:45:10.239Z,-24079.66
2023-04-20T16:47:39.392Z,-24079.63
2023-04-20T16:50:07.957Z,-24079.72
2023-04-20T16:52:36.321Z,-24079.94
2023-04-20T16:55:04.921Z,-24080.38
2023-04-20T16:57:33.119Z,-24080.88
2023-04-20T17:00:01.252Z,-24081.66
2023-04-20T17:02:33.198Z,-24082.00
2023-04-20T17:05:01.753Z,-24082.00
2023-04-20T17:07:30.173Z,-24082.03
2023-04-20T17:09:58.318Z,-24082.15
2023-04-20T17:12:26.484Z,-24082.28
2023-04-20T17:14:55.463Z,-24082.37
2023-04-20T17:17:23.718Z,-24082.87
2023-04-20T17:19:51.859Z,-24083.56
2023-04-20T17:22:20.167Z,-24084.24
2023-04-20T17:24:48.488Z,-24084.83
2023-04-20T17:27:16.674Z,-24084.96
2023-04-20T17:29:45.271Z,-24084.80
2023-04-20T17:32:13.651Z,-24084.61
2023-04-20T17:34:44.937Z,-24084.86
2023-04-20T17:37:13.404Z,-24085.24
2023-04-20T17:39:41.537Z,-24085.52
2023-04-20T17:42:10.903Z,-24085.46
2023-04-20T17:44:39.906Z,-24085.27
2023-04-20T17:47:09.604Z,-24084.83
2023-04-20T17:49:37.750Z,-24084.49
2023-04-20T17:52:06.333Z,-24084.37
2023-04-20T17:54:34.624Z,-24084.30
2023-04-20T17:57:02.804Z,-24084.68
2023-04-20T17:59:31.343Z,-24084.67
2023-04-20T18:01:59.599Z,-24084.30
2023-04-20T18:04:28.339Z,-24083.99
2023-04-20T18:06:56.649Z,-24083.62
2023-04-20T18:09:24.861Z,-24083.09
2023-04-20T18:11:53.328Z,-24082.56
2023-04-20T18:14:21.511Z,-24081.97
2023-04-20T18:16:54.921Z,-24081.16
2023-04-20T18:19:23.233Z,-24080.44
2023-04-20T18:21:51.436Z,-24079.82
2023-04-20T18:24:19.698Z,-24079.38
2023-04-20T18:26:47.990Z,-24079.01
2023-04-20T18:29:16.253Z,-24078.57
2023-04-20T18:31:50.045Z,-24079.19
2023-04-20T18:34:18.406Z,-24079.04
2023-04-20T18:36:46.681Z,-24078.32
2023-04-20T18:39:15.239Z,-24077.26
2023-04-20T18:41:43.339Z,-24074.11
2023-04-20T18:44:11.457Z,-24069.47
2023-04-20T18:46:39.672Z,-24065.88
2023-04-20T18:49:07.988Z,-24063.14
2023-04-20T18:51:36.282Z,-24060.74
2023-04-20T18:54:04.604Z,-24058.24
2023-04-20T18:56:33.925Z,-24055.62
2023-04-20T18:59:03.334Z,-24053.31
2023-04-20T19:01:33.381Z,-24051.06
2023-04-20T19:04:01.846Z,-24048.94
2023-04-20T19:06:31.317Z,-24047.00
2023-04-20T19:08:59.542Z,-24044.85
2023-04-20T19:11:29.066Z,-24043.57
2023-04-20T19:13:57.370Z,-24041.57
2023-04-20T19:16:25.779Z,-24039.20
2023-04-20T19:18:54.043Z,-24036.71
2023-04-20T19:21:22.257Z,-24035.33
2023-04-20T19:23:50.578Z,-24033.80
2023-04-20T19:26:18.893Z,-24032.06
2023-04-20T19:28:47.140Z,-24030.28
2023-04-20T19:31:16.131Z,-24028.78
2023-04-20T19:33:44.866Z,-24027.43
2023-04-20T19:36:13.373Z,-24026.37
2023-04-20T19:38:41.767Z,-24025.22
2023-04-20T19:41:10.170Z,-24023.97
2023-04-20T19:43:38.350Z,-24022.65
2023-04-20T19:46:09.759Z,-24021.41
2023-04-20T19:48:38.131Z,-24019.34
2023-04-20T19:51:06.760Z,-24016.97
2023-04-20T19:53:34.978Z,-24014.91
2023-04-20T19:56:06.195Z,-24013.09
2023-04-20T19:58:34.648Z,-24011.72
2023-04-20T20:01:03.344Z,-24010.88
2023-04-20T20:03:32.843Z,-24009.57
2023-04-20T20:06:01.438Z,-24008.41
2023-04-20T20:08:30.323Z,-24007.63
2023-04-20T20:10:58.420Z,-24007.04
2023-04-20T20:13:26.870Z,-24006.34
2023-04-20T20:15:55.044Z,-24005.66
2023-04-20T20:18:24.436Z,-24005.03
2023-04-20T20:20:52.614Z,-24004.72
2023-04-20T20:23:21.628Z,-24004.78
2023-04-20T20:25:49.783Z,-24004.84
2023-04-20T20:28:18.855Z,-24004.44
2023-04-20T20:30:47.078Z,-24003.85
2023-04-20T20:33:15.433Z,-24003.28
2023-04-20T20:35:43.583Z,-24003.00
2023-04-20T20:38:11.744Z,-24002.69
2023-04-20T20:40:40.164Z,-24002.04
2023-04-20T20:43:08.738Z,-24001.41
2023-04-20T20:45:37.367Z,-24000.79
2023-04-20T20:48:05.733Z,-24000.16
2023-04-20T20:50:34.082Z,-23999.31
2023-04-20T20:53:02.279Z,-23998.60
2023-04-20T20:55:30.484Z,-23998.13
2023-04-20T20:57:58.595Z,-23997.63
2023-04-20T21:00:27.152Z,-23997.35
2023-04-20T21:02:57.261Z,-23996.81
2023-04-20T21:05:25.588Z,-23996.53
2023-04-20T21:07:53.772Z,-23996.44
2023-04-20T21:10:21.928Z,-23996.34
2023-04-20T21:12:50.419Z,-23996.28
2023-04-20T21:15:18.699Z,-23996.13
2023-04-20T21:17:46.963Z,-23996.22
2023-04-20T21:20:15.372Z,-23996.06
2023-04-20T21:22:43.578Z,-23995.88
2023-04-20T21:25:11.796Z,-23995.91
2023-04-20T21:27:40.302Z,-23996.25
2023-04-20T21:30:09.016Z,-23996.63
2023-04-20T21:32:37.402Z,-23996.82
2023-04-20T21:35:06.255Z,-23996.81
2023-04-20T21:37:34.454Z,-23997.07
2023-04-20T21:40:02.592Z,-23996.85
2023-04-20T21:42:31.245Z,-23996.66
2023-04-20T21:44:59.689Z,-23996.47
2023-04-20T21:47:27.850Z,-23995.66
2023-04-20T21:49:56.065Z,-23994.81
2023-04-20T21:52:24.979Z,-23994.46
2023-04-20T21:54:53.216Z,-23994.21
2023-04-20T21:57:21.423Z,-23993.46
2023-04-20T21:59:49.517Z,-23992.84
2023-04-20T22:02:17.712Z,-23992.02
2023-04-20T22:04:46.352Z,-23991.34
2023-04-20T22:07:17.709Z,-23990.33
2023-04-20T22:09:45.831Z,-23989.09
2023-04-20T22:12:14.045Z,-23987.96
2023-04-20T22:14:42.147Z,-23987.27
2023-04-20T22:17:11.969Z,-23986.49
2023-04-20T22:19:40.385Z,-23985.77
2023-04-20T22:22:08.483Z,-23985.18
2023-04-20T22:24:37.059Z,-23984.55
2023-04-20T22:27:05.465Z,-23983.83
2023-04-20T22:29:33.750Z,-23983.11
2023-04-20T22:32:01.866Z,-23982.30
2023-04-20T22:34:30.152Z,-23981.58
2023-04-20T22:36:58.241Z,-23980.86
2023-04-20T22:39:26.347Z,-23980.26
2023-04-20T22:41:54.530Z,-23980.02
2023-04-20T22:44:22.759Z,-23979.39
2023-04-20T22:46:51.382Z,-23978.77
2023-04-20T22:49:20.166Z,-23977.89
2023-04-20T22:51:48.430Z,-23976.86
2023-04-20T22:54:16.628Z,-23976.01
2023-04-20T22:56:44.782Z,-23975.16
2023-04-20T22:59:12.899Z,-23974.82
2023-04-20T23:01:41.051Z,-23974.51
2023-04-20T23:04:09.414Z,-23974.17
2023-04-20T23:06:37.955Z,-23973.85
2023-04-20T23:09:08.428Z,-23973.73
2023-04-20T23:11:38.976Z,-23973.76
2023-04-20T23:14:08.231Z,-23973.23
2023-04-20T23:16:36.368Z,-23972.73
2023-04-20T23:19:04.541Z,-23972.13
2023-04-20T23:21:33.030Z,-23971.35
2023-04-20T23:24:01.212Z,-23970.29
2023-04-20T23:26:29.498Z,-23969.03
2023-04-20T23:28:57.815Z,-23968.28
2023-04-20T23:31:26.268Z,-23967.44
2023-04-20T23:33:54.531Z,-23966.87
2023-04-20T23:36:22.634Z,-23965.78
2023-04-20T23:38:50.849Z,-23965.21
2023-04-20T23:41:19.066Z,-23964.93
2023-04-20T23:43:47.215Z,-23964.46
2023-04-20T23:46:15.409Z,-23963.56
2023-04-20T23:48:43.721Z,-23962.93
2023-04-20T23:51:11.951Z,-23962.84
2023-04-20T23:53:40.266Z,-23962.65
2023-04-20T23:56:08.539Z,-23962.18
2023-04-20T23:58:37.742Z,-23961.55
